Time;durP1;ratioP1;P1;durP2;ratioP2;P2;SDS_P1;SDS_P2;PMS_P1;PMS_P2;Temp;Humidity;BMP_temperature;BMP_pressure;BME280_temperature;BME280_humidity;BME280_pressure;Samples;Min_cycle;Max_cycle;Signal;HPM_P1;HPM_P2
2023/01/03 00:01:07;;;;;;;3.58;2.03;;;;;;;21.75;38.81;102437.97;5039754;28;20124;-66
2023/01/03 00:03:32;;;;;;;2.88;2.15;;;;;;;21.77;38.70;102445.75;5035501;28;20047;-66
2023/01/03 00:05:58;;;;;;;3.58;2.17;;;;;;;21.75;39.10;102450.41;5038492;28;20048;-66
2023/01/03 00:08:23;;;;;;;3.95;2.20;;;;;;;21.69;39.04;102454.47;5044220;28;20060;-66
2023/01/03 00:10:49;;;;;;;3.55;2.20;;;;;;;21.69;38.84;102444.69;5033545;28;20052;-66
2023/01/03 00:13:14;;;;;;;3.80;2.10;;;;;;;21.66;39.05;102442.34;5028855;28;20040;-67
2023/01/03 00:15:40;;;;;;;4.00;2.40;;;;;;;21.70;38.82;102443.72;5036362;28;20091;-66
2023/01/03 00:18:05;;;;;;;2.90;2.10;;;;;;;21.67;38.66;102449.31;5031186;28;20033;-66
2023/01/03 00:20:33;;;;;;;3.45;2.08;;;;;;;21.67;38.75;102446.66;5029060;28;20644;-67
2023/01/03 00:22:58;;;;;;;3.35;2.42;;;;;;;21.49;39.34;102450.31;5029259;28;20045;-67
2023/01/03 00:25:25;;;;;;;4.78;2.35;;;;;;;21.58;39.06;102446.78;5029067;28;20048;-67
2023/01/03 00:27:51;;;;;;;3.97;2.35;;;;;;;21.59;38.94;102443.13;5030833;28;20095;-66
2023/01/03 00:30:17;;;;;;;2.20;1.80;;;;;;;21.53;38.79;102452.50;5028390;28;20037;-66
2023/01/03 00:32:42;;;;;;;2.50;1.95;;;;;;;21.51;39.14;102454.47;5030597;28;20447;-66
2023/01/03 00:35:08;;;;;;;2.72;1.80;;;;;;;21.47;38.84;102450.47;5031235;28;20044;-66
2023/01/03 00:37:33;;;;;;;4.00;2.25;;;;;;;21.41;39.29;102446.63;5034222;28;20037;-66
2023/01/03 00:39:59;;;;;;;3.08;1.98;;;;;;;21.45;39.28;102463.03;5037213;28;20042;-66
2023/01/03 00:42:24;;;;;;;2.33;2.03;;;;;;;21.46;38.96;102455.94;5040289;28;20041;-66
2023/01/03 00:44:50;;;;;;;5.55;2.40;;;;;;;21.34;39.48;102461.44;5033715;28;20088;-66
2023/01/03 00:47:15;;;;;;;2.85;2.05;;;;;;;21.36;39.13;102462.16;5037389;28;20086;-66
2023/01/03 00:49:41;;;;;;;3.38;2.20;;;;;;;21.32;39.32;102458.09;5039389;28;20044;-66
2023/01/03 00:52:06;;;;;;;2.85;1.80;;;;;;;21.37;39.03;102470.94;5035675;28;20072;-65
2023/01/03 00:54:32;;;;;;;3.83;2.03;;;;;;;21.33;39.10;102470.38;5039641;28;20048;-66
2023/01/03 00:56:57;;;;;;;2.97;2.10;;;;;;;21.31;38.93;102461.75;5035147;28;20048;-66
2023/01/03 00:59:23;;;;;;;3.05;2.15;;;;;;;21.29;39.08;102462.88;5043524;28;20161;-66
2023/01/03 01:01:51;;;;;;;4.10;2.50;;;;;;;21.29;39.27;102471.66;5036726;28;20034;-66
2023/01/03 01:04:21;;;;;;;2.38;2.10;;;;;;;21.28;39.21;102474.47;5038717;28;20037;-65
2023/01/03 01:06:49;;;;;;;;;;;;;;;21.23;39.13;102479.34;5039640;28;20036;-65
2023/01/03 01:09:21;;;;;;;2.22;1.80;;;;;;;21.22;39.29;102481.16;5030736;28;19928;-66
2023/01/03 01:11:48;;;;;;;2.63;1.90;;;;;;;21.13;39.09;102466.97;5031979;28;20119;-65
2023/01/03 01:14:21;;;;;;;2.67;1.75;;;;;;;21.19;39.13;102481.47;5040710;28;20834;-65
2023/01/03 01:16:53;;;;;;;4.40;2.13;;;;;;;21.13;39.56;102485.53;5030190;28;20040;-66
2023/01/03 01:19:24;;;;;;;3.15;1.83;;;;;;;21.13;39.04;102485.53;5037037;28;20040;-66
2023/01/03 01:21:50;;;;;;;4.05;2.08;;;;;;;21.09;39.21;102497.41;5041430;28;20055;-65
2023/01/03 01:24:16;;;;;;;2.35;1.88;;;;;;;21.08;39.53;102498.38;5036855;28;20032;-66
2023/01/03 01:26:42;;;;;;;2.53;1.98;;;;;;;21.07;39.39;102502.03;5037460;28;20060;-66
2023/01/03 01:29:10;;;;;;;3.58;1.83;;;;;;;21.08;39.44;102502.84;5035006;28;20056;-66
2023/01/03 01:31:36;;;;;;;2.60;1.70;;;;;;;21.07;39.44;102517.06;5033559;28;20390;-66
2023/01/03 01:34:01;;;;;;;2.72;1.85;;;;;;;21.04;39.62;102517.38;5033935;28;20049;-66
2023/01/03 01:36:29;;;;;;;3.20;1.88;;;;;;;21.07;39.58;102522.38;5037937;28;20033;-65
2023/01/03 01:39:01;;;;;;;2.15;1.83;;;;;;;21.02;39.56;102522.00;5032351;28;20157;-66
2023/01/03 01:44:48;;;;;;;2.75;1.80;;;;;;;21.13;39.45;102532.38;5035757;28;20038;-65
2023/01/03 01:47:52;;;;;;;3.47;2.17;;;;;;;21.08;39.28;102524.88;5021876;28;20721;-65
2023/01/03 01:50:23;;;;;;;2.90;2.03;;;;;;;21.24;39.21;102529.56;4992971;28;20069;-66
2023/01/03 01:53:13;;;;;;;2.40;1.90;;;;;;;21.28;39.27;102530.94;4997102;28;20128;-66
2023/01/03 01:55:44;;;;;;;2.33;1.92;;;;;;;21.20;39.50;102532.63;5019627;28;20053;-65
2023/01/03 01:58:11;;;;;;;3.22;1.67;;;;;;;21.21;39.19;102542.25;5021898;28;20668;-66
2023/01/03 02:00:38;;;;;;;2.83;1.60;;;;;;;21.23;39.20;102535.81;5032409;28;20548;-66
2023/01/03 02:03:04;;;;;;;2.15;1.55;;;;;;;21.18;39.42;102527.47;5034997;28;20083;-66
2023/01/03 02:05:31;;;;;;;1.90;1.60;;;;;;;21.16;39.36;102528.59;5032047;28;20045;-66
2023/01/03 02:07:58;;;;;;;2.45;1.70;;;;;;;21.07;39.42;102522.38;5037917;28;20142;-66
2023/01/03 02:11:12;;;;;;;2.25;1.60;;;;;;;21.15;39.43;102530.41;5033589;28;20044;-66
2023/01/03 02:13:50;;;;;;;2.20;1.55;;;;;;;21.09;39.59;102528.34;5029788;28;20052;-66
2023/01/03 02:16:25;;;;;;;2.33;1.67;;;;;;;21.10;39.44;102533.50;5046887;28;20045;-66
2023/01/03 02:19:31;;;;;;;1.80;1.40;;;;;;;21.12;39.43;102539.47;5042433;28;20119;-66
2023/01/03 02:21:59;;;;;;;2.83;2.00;;;;;;;21.10;39.39;102535.31;5029572;28;20131;-66
2023/01/03 02:25:04;;;;;;;3.65;1.83;;;;;;;21.11;39.27;102529.88;5039354;28;20045;-65
2023/01/03 02:27:49;;;;;;;1.95;1.70;;;;;;;21.06;39.58;102529.50;5030722;28;20172;-65
2023/01/03 02:30:46;;;;;;;3.55;1.80;;;;;;;21.06;39.37;102540.09;5033695;28;20566;-66
2023/01/03 02:33:24;;;;;;;1.60;1.50;;;;;;;21.05;39.36;102545.53;5017436;28;20079;-66
2023/01/03 02:35:49;;;;;;;3.00;1.70;;;;;;;21.01;39.46;102547.66;5037256;28;20045;-65
2023/01/03 02:38:25;;;;;;;3.63;1.80;;;;;;;21.02;39.38;102549.31;5042299;28;20099;-66
2023/01/03 02:41:03;;;;;;;3.58;1.70;;;;;;;21.00;39.41;102548.59;5038188;28;20037;-66
2023/01/03 02:43:42;;;;;;;2.58;1.80;;;;;;;21.02;39.45;102540.53;5037835;28;20055;-66
2023/01/03 02:46:29;;;;;;;3.25;1.70;;;;;;;21.03;39.52;102543.03;5035628;28;20032;-66
2023/01/03 02:49:07;;;;;;;2.20;1.60;;;;;;;20.94;39.53;102527.16;5044720;28;20738;-66
2023/01/03 02:51:44;;;;;;;2.72;1.90;;;;;;;20.92;39.64;102543.22;5041721;28;20041;-66
2023/01/03 02:54:17;;;;;;;3.83;1.60;;;;;;;20.92;39.51;102542.38;5039077;28;20118;-66
2023/01/03 02:57:01;;;;;;;2.15;1.67;;;;;;;20.95;39.39;102544.72;5037442;28;20116;-66
2023/01/03 02:59:52;;;;;;;2.28;1.50;;;;;;;20.91;39.71;102549.47;5039858;28;20053;-66
2023/01/03 03:02:21;;;;;;;2.45;1.80;;;;;;;20.91;39.51;102549.47;5041340;28;20032;-65
2023/01/03 03:04:52;;;;;;;2.30;1.63;;;;;;;20.93;39.57;102544.88;5044349;28;20044;-65
2023/01/03 03:07:28;;;;;;;2.88;2.08;;;;;;;20.89;39.40;102547.97;5042358;28;20045;-66
2023/01/03 03:15:57;;;;;;;3.30;1.92;;;;;;;20.87;39.53;102539.34;5040454;28;20056;-65
2023/01/03 03:18:27;;;;;;;3.03;1.95;;;;;;;20.88;39.49;102541.84;5030474;28;20059;-66
2023/01/03 03:26:37;;;;;;;3.30;1.80;;;;;;;20.88;39.28;102546.28;5036544;28;20052;-66
2023/01/03 03:29:11;;;;;;;1.85;1.75;;;;;;;20.80;39.48;102544.34;5038190;28;20091;-66
2023/01/03 03:31:43;;;;;;;2.40;1.85;;;;;;;20.81;39.31;102546.84;5031133;28;20439;-66
2023/01/03 03:34:17;;;;;;;2.78;1.67;;;;;;;20.82;39.59;102555.63;5035511;28;20041;-66
2023/01/03 03:36:58;;;;;;;4.95;2.33;;;;;;;20.71;39.47;102545.25;5034998;28;20041;-66
2023/01/03 03:45:35;;;;;;;3.25;2.10;;;;;;;20.80;39.40;102547.84;5046657;28;20093;-66
2023/01/03 03:48:12;;;;;;;4.28;2.00;;;;;;;20.84;39.36;102555.53;5037717;28;20041;-66
2023/01/03 03:50:59;;;;;;;2.03;1.83;;;;;;;20.79;39.53;102553.28;5039549;28;20036;-66
2023/01/03 03:53:30;;;;;;;2.42;2.00;;;;;;;20.77;39.49;102553.44;5035505;28;20040;-66
2023/01/03 03:56:00;;;;;;;2.25;1.83;;;;;;;20.78;39.31;102551.63;5031369;28;20456;-66
2023/01/03 03:58:29;;;;;;;3.38;1.90;;;;;;;20.79;39.41;102554.13;5040532;28;20054;-66
2023/01/03 04:00:56;;;;;;;2.83;2.03;;;;;;;20.86;39.12;102542.97;5040714;28;20807;-66
2023/01/03 04:03:24;;;;;;;3.10;1.90;;;;;;;21.01;39.22;102552.09;5038768;28;21041;-65
2023/01/03 04:05:56;;;;;;;4.05;1.75;;;;;;;20.96;39.33;102560.47;5035040;28;20526;-66
2023/01/03 04:08:22;;;;;;;2.00;1.80;;;;;;;20.91;39.22;102551.28;5033244;28;20043;-66
2023/01/03 04:10:48;;;;;;;2.47;1.95;;;;;;;20.93;39.19;102554.63;5040375;28;20033;-65
2023/01/03 04:13:13;;;;;;;2.50;1.90;;;;;;;20.90;39.24;102554.94;5037620;28;20040;-66
2023/01/03 04:15:39;;;;;;;2.53;2.08;;;;;;;20.92;39.18;102561.75;5037411;28;20063;-66
2023/01/03 04:18:05;;;;;;;2.53;1.80;;;;;;;20.87;39.56;102566.66;5041023;28;20048;-66
2023/01/03 04:20:30;;;;;;;2.42;2.03;;;;;;;20.90;39.34;102578.75;5038238;28;20036;-66
2023/01/03 04:22:56;;;;;;;1.90;1.70;;;;;;;20.79;39.50;102551.47;5043140;28;20049;-66
2023/01/03 04:25:21;;;;;;;2.83;1.90;;;;;;;20.87;39.31;102565.81;5031422;28;20042;-66
2023/01/03 04:27:47;;;;;;;3.17;2.17;;;;;;;20.91;39.21;102565.38;5042871;28;20041;-66
2023/01/03 04:30:13;;;;;;;2.53;1.85;;;;;;;20.84;39.58;102574.88;5034911;28;20496;-66
2023/01/03 04:32:38;;;;;;;3.53;2.08;;;;;;;20.86;39.51;102577.38;5039181;28;20040;-66
2023/01/03 04:35:05;;;;;;;2.03;1.63;;;;;;;20.82;39.38;102579.47;5035149;28;20117;-66
2023/01/03 04:37:30;;;;;;;2.58;2.05;;;;;;;20.84;39.51;102576.69;5033975;28;20049;-66
2023/01/03 04:39:56;;;;;;;2.28;1.70;;;;;;;20.84;39.41;102579.34;5040086;28;20171;-66
2023/01/03 04:45:09;;;;;;;2.95;2.10;;;;;;;20.79;39.54;102582.41;5034666;28;20420;-66
2023/01/03 04:47:35;;;;;;;3.67;2.28;;;;;;;20.78;39.36;102573.63;5039951;28;20097;-66
2023/01/03 04:50:00;;;;;;;2.65;1.75;;;;;;;20.82;39.29;102579.47;5038161;28;20154;-66
2023/01/03 04:52:27;;;;;;;3.50;2.10;;;;;;;20.80;39.46;102582.25;5037251;28;20070;-66
2023/01/03 04:54:53;;;;;;;2.35;1.92;;;;;;;20.79;39.58;102585.06;5034866;28;20621;-66
2023/01/03 04:57:18;;;;;;;2.85;2.10;;;;;;;20.76;39.51;102583.53;5042397;28;20063;-66
2023/01/03 04:59:44;;;;;;;3.45;2.30;;;;;;;20.77;39.32;102579.91;5038539;28;20048;-66
2023/01/03 05:02:09;;;;;;;3.17;2.03;;;;;;;20.76;39.41;102590.63;5042026;28;20540;-66
2023/01/03 05:04:35;;;;;;;2.50;1.98;;;;;;;20.71;39.36;102572.53;5040935;28;20028;-66
2023/01/03 05:07:00;;;;;;;2.90;2.13;;;;;;;20.74;39.51;102587.31;5036595;28;20045;-66
2023/01/03 05:09:26;;;;;;;2.90;2.10;;;;;;;20.69;39.42;102597.50;5037723;28;20040;-65
2023/01/03 05:11:52;;;;;;;2.92;2.13;;;;;;;20.71;39.59;102583.13;5036244;28;20029;-66
2023/01/03 05:14:18;;;;;;;3.20;2.25;;;;;;;20.71;39.21;102590.25;5031278;28;20041;-65
2023/01/03 05:16:43;;;;;;;2.33;2.13;;;;;;;20.73;39.41;102597.06;5037873;28;20184;-64
2023/01/03 05:19:09;;;;;;;4.38;2.30;;;;;;;20.70;39.38;102597.34;5041500;28;20295;-65
2023/01/03 05:27:04;;;;;;;3.85;2.35;;;;;;;20.73;39.37;102599.69;5025620;28;20048;-64
2023/01/03 05:29:32;;;;;;;3.65;2.42;;;;;;;20.67;39.40;102608.22;5039386;28;20542;-65
2023/01/03 05:31:58;;;;;;;2.17;1.98;;;;;;;20.72;39.42;102599.84;5032131;28;20535;-64
2023/01/03 05:34:23;;;;;;;3.08;2.17;;;;;;;20.73;39.23;102607.66;5029157;28;20098;-65
2023/01/03 05:36:49;;;;;;;3.03;2.53;;;;;;;20.75;39.29;102596.91;5039538;28;20990;-64
2023/01/03 05:39:14;;;;;;;3.40;2.28;;;;;;;20.89;39.20;102598.28;5033157;28;20037;-65
2023/01/03 05:41:58;;;;;;;5.38;2.60;;;;;;;21.32;38.07;102595.91;5031655;28;20045;-65
2023/01/03 05:44:24;;;;;;;3.95;2.15;;;;;;;21.45;38.20;102592.91;5036486;28;20697;-64
2023/01/03 05:46:50;;;;;;;3.22;2.30;;;;;;;21.40;38.11;102589.88;5033430;28;20045;-65
2023/01/03 05:49:16;;;;;;;3.65;2.42;;;;;;;21.43;38.04;102605.47;5028553;28;20041;-65
2023/01/03 05:51:41;;;;;;;3.75;2.30;;;;;;;21.34;38.49;102601.88;5039111;28;20031;-65
2023/01/03 05:54:08;;;;;;;2.95;2.20;;;;;;;21.23;38.67;102596.75;5032976;28;20041;-64
2023/01/03 05:56:34;;;;;;;3.85;2.47;;;;;;;21.06;38.80;102603.66;5035488;28;20091;-64
2023/01/03 05:58:59;;;;;;;3.90;2.58;;;;;;;21.00;38.99;102600.72;5038384;28;20045;-64
2023/01/03 06:01:27;;;;;;;3.63;2.50;;;;;;;20.91;39.09;102598.97;5035836;28;20060;-65
2023/01/03 06:03:52;;;;;;;3.70;2.38;;;;;;;20.92;39.17;102603.28;5041203;28;20044;-65
2023/01/03 06:06:18;;;;;;;2.60;2.40;;;;;;;20.83;39.17;102589.09;5028774;28;20107;-65
2023/01/03 06:08:44;;;;;;;3.50;2.33;;;;;;;20.83;39.37;102586.47;5033818;28;20043;-65
2023/01/03 06:11:12;;;;;;;3.17;2.55;;;;;;;20.84;39.56;102597.88;5029962;28;20036;-65
2023/01/03 06:13:38;;;;;;;2.92;2.50;;;;;;;20.90;39.06;102598.13;5041571;28;20056;-64
2023/01/03 06:18:53;;;;;;;4.13;2.90;;;;;;;20.84;39.29;102595.22;5033480;28;20494;-64
2023/01/03 06:21:20;;;;;;;3.53;2.72;;;;;;;20.84;39.30;102601.38;5035432;28;20612;-64
2023/01/03 06:23:46;;;;;;;3.75;2.70;;;;;;;20.83;39.23;102594.41;5030289;28;20045;-64
2023/01/03 06:26:16;;;;;;;3.15;2.55;;;;;;;20.84;39.51;102596.06;5037329;28;20371;-64
2023/01/03 06:28:41;;;;;;;3.80;2.53;;;;;;;20.79;39.60;102596.47;5034498;28;20427;-65
2023/01/03 06:31:07;;;;;;;3.40;2.65;;;;;;;20.80;39.48;102598.16;5031251;28;20036;-65
2023/01/03 06:33:33;;;;;;;4.82;2.70;;;;;;;20.83;39.25;102601.50;5029651;28;20044;-64
2023/01/03 06:36:08;;;;;;;3.58;2.40;;;;;;;20.81;39.34;102605.09;5035532;28;20045;-64
2023/01/03 06:38:34;;;;;;;3.40;2.50;;;;;;;20.79;39.33;102600.94;5036724;28;20574;-64
2023/01/03 06:41:00;;;;;;;6.03;2.92;;;;;;;20.79;39.26;102603.59;5038042;28;20371;-65
2023/01/03 06:43:26;;;;;;;2.90;2.47;;;;;;;20.79;39.49;102611.53;5036802;28;20040;-64
2023/01/03 06:54:09;;;;;;;3.88;2.83;;;;;;;20.65;39.57;102610.19;5037875;28;20087;-65
2023/01/03 06:56:35;;;;;;;2.72;2.30;;;;;;;20.76;39.49;102615.31;5039406;28;20106;-65
2023/01/03 06:59:00;;;;;;;2.78;2.47;;;;;;;20.73;39.69;102614.75;5034108;28;20049;-64
2023/01/03 07:01:26;;;;;;;3.47;2.13;;;;;;;20.68;39.44;102606.41;5030976;28;20041;-64
2023/01/03 07:03:52;;;;;;;4.13;2.80;;;;;;;20.56;39.69;102591.66;5038740;28;20048;-64
2023/01/03 07:06:17;;;;;;;2.70;2.30;;;;;;;20.74;39.05;102622.56;5033241;28;20045;-64
2023/01/03 07:08:43;;;;;;;2.95;2.33;;;;;;;20.75;39.41;102623.38;5030733;28;20578;-64
2023/01/03 07:11:08;;;;;;;4.25;2.38;;;;;;;20.76;39.35;102631.19;5033259;28;20033;-65
2023/01/03 07:16:19;;;;;;;3.20;2.40;;;;;;;20.71;39.43;102635.25;5029247;28;20049;-65
2023/01/03 07:18:45;;;;;;;3.20;2.78;;;;;;;20.67;39.56;102626.75;5044225;28;20589;-64
2023/01/03 07:21:11;;;;;;;2.80;2.53;;;;;;;20.72;39.67;102632.44;5027666;28;20045;-64
2023/01/03 07:23:37;;;;;;;3.35;2.60;;;;;;;20.71;39.61;102637.91;5028835;28;20136;-64
2023/01/03 07:26:03;;;;;;;3.85;2.63;;;;;;;20.71;39.69;102635.25;5033028;28;20036;-64
2023/01/03 07:28:28;;;;;;;3.03;2.35;;;;;;;20.71;39.37;102637.91;5039506;28;20040;-65
2023/01/03 07:30:59;;;;;;;3.00;2.35;;;;;;;20.71;39.54;102636.06;5042056;28;20029;-64
2023/01/03 07:33:25;;;;;;;4.93;2.92;;;;;;;20.70;39.46;102636.22;5037780;28;20048;-65
2023/01/03 07:35:50;;;;;;;3.85;2.63;;;;;;;20.64;39.63;102648.19;5044330;28;20411;-64
2023/01/03 07:38:16;;;;;;;3.50;2.30;;;;;;;20.65;39.69;102652.53;5033903;28;20033;-65
2023/01/03 07:40:41;;;;;;;4.03;2.90;;;;;;;20.65;39.55;102652.53;5033720;28;20042;-65
2023/01/03 07:45:55;;;;;;;10.25;2.80;;;;;;;20.61;39.64;102659.06;5032026;28;20542;-64
2023/01/03 07:48:20;;;;;;;3.28;2.45;;;;;;;20.59;39.70;102663.66;5035787;28;20043;-64
2023/01/03 07:50:46;;;;;;;2.92;2.30;;;;;;;20.57;39.66;102657.69;5039763;28;20074;-65
2023/01/03 07:53:15;;;;;;;3.72;2.40;;;;;;;20.60;39.41;102656.56;5037788;28;20070;-65
2023/01/03 07:55:43;;;;;;;2.67;2.35;;;;;;;20.56;39.55;102655.19;5034574;28;20044;-64
2023/01/03 07:58:08;;;;;;;3.08;2.50;;;;;;;20.63;39.61;102664.22;5032709;28;20033;-64
2023/01/03 08:00:34;;;;;;;2.85;2.25;;;;;;;20.62;39.74;102660.72;5039002;28;20036;-65
2023/01/03 08:03:00;;;;;;;3.33;2.42;;;;;;;20.70;39.49;102668.00;5033770;28;20121;-65
2023/01/03 08:05:26;;;;;;;3.40;2.40;;;;;;;20.67;39.28;102665.63;5041577;28;20076;-64
2023/01/03 08:07:52;;;;;;;4.38;2.60;;;;;;;20.63;39.44;102657.13;5035080;28;20047;-65
2023/01/03 08:13:18;;;;;;;6.93;2.60;;;;;;;21.54;37.93;102666.22;5035384;28;20044;-64
2023/01/03 08:15:47;;;;;;;2.55;2.00;;;;;;;21.70;37.99;102662.94;5036512;28;20110;-64
2023/01/03 08:18:14;;;;;;;2.88;2.38;;;;;;;21.60;37.70;102647.09;5036425;28;20040;-64
2023/01/03 08:20:40;;;;;;;2.58;2.10;;;;;;;21.62;37.97;102661.03;5038131;28;20378;-64
2023/01/03 08:23:06;;;;;;;4.93;3.42;;;;;;;21.57;37.67;102654.53;5038405;28;20063;-60
2023/01/03 08:25:31;;;;;;;4.43;3.03;;;;;;;21.49;37.68;102657.06;5037643;28;20037;-60
2023/01/03 08:27:58;;;;;;;4.53;3.10;;;;;;;21.47;37.35;102659.84;5044179;28;20087;-60
2023/01/03 08:30:24;;;;;;;5.82;3.25;;;;;;;21.38;37.40;102658.09;5040187;28;20055;-60
2023/01/03 08:32:50;;;;;;;5.53;3.42;;;;;;;21.14;37.80;102661.19;5037757;28;20049;-60
2023/01/03 08:35:16;;;;;;;4.18;3.28;;;;;;;20.99;38.03;102666.09;5030631;28;20640;-60
2023/01/03 08:37:45;;;;;;;6.68;3.42;;;;;;;20.92;38.30;102669.47;5034885;28;20045;-61
2023/01/03 08:40:13;;;;;;;5.07;3.25;;;;;;;20.76;38.41;102665.59;5034397;28;20040;-63
2023/01/03 08:42:38;;;;;;;5.68;3.30;;;;;;;20.68;38.61;102672.59;5035544;28;20040;-60
2023/01/03 08:45:10;;;;;;;5.22;3.13;;;;;;;20.62;38.73;102662.53;5055724;28;20034;-63
2023/01/03 08:47:35;;;;;;;5.20;3.50;;;;;;;20.55;38.80;102664.09;5034694;28;20042;-60
2023/01/03 08:50:02;;;;;;;4.90;3.17;;;;;;;20.56;38.69;102674.53;5039690;28;20075;-63
2023/01/03 08:52:27;;;;;;;4.18;2.92;;;;;;;20.52;38.82;102668.69;5035823;28;20090;-63
2023/01/03 08:54:53;;;;;;;4.57;3.20;;;;;;;20.36;38.89;102660.44;5039560;28;20667;-60
2023/01/03 08:57:18;;;;;;;4.18;2.90;;;;;;;20.44;39.02;102673.84;5034332;28;20726;-60
2023/01/03 08:59:44;;;;;;;4.10;3.20;;;;;;;20.38;38.96;102668.25;5040312;28;20033;-60
2023/01/03 09:02:09;;;;;;;4.95;3.08;;;;;;;20.34;38.85;102672.97;5036380;28;20037;-61
2023/01/03 09:04:35;;;;;;;6.25;3.45;;;;;;;20.39;38.91;102675.19;5028042;28;20462;-63
2023/01/03 09:07:00;;;;;;;4.85;3.13;;;;;;;20.32;39.14;102674.09;5034488;28;21859;-62
2023/01/03 09:09:26;;;;;;;4.25;2.97;;;;;;;20.25;39.18;102684.38;5032446;28;20419;-62
2023/01/03 09:11:51;;;;;;;4.00;3.40;;;;;;;20.26;39.09;102679.91;5033927;28;20045;-63
2023/01/03 09:14:17;;;;;;;4.20;2.97;;;;;;;20.24;39.09;102688.00;5038299;28;20049;-63
2023/01/03 09:16:43;;;;;;;3.97;2.90;;;;;;;20.10;39.41;102683.94;5036754;28;20468;-62
2023/01/03 09:19:09;;;;;;;4.82;3.10;;;;;;;20.09;39.29;102684.91;5034969;28;20045;-62
2023/01/03 09:21:35;;;;;;;3.88;2.53;;;;;;;20.09;39.31;102687.56;5028929;28;20098;-63
2023/01/03 09:24:00;;;;;;;4.07;2.75;;;;;;;20.04;39.27;102678.38;5037687;28;20052;-63
2023/01/03 09:26:26;;;;;;;3.92;2.88;;;;;;;20.05;39.25;102683.50;5035299;28;20040;-62
2023/01/03 09:28:51;;;;;;;5.65;3.13;;;;;;;20.03;39.24;102681.97;5034767;28;20052;-62
2023/01/03 09:31:17;;;;;;;4.90;2.50;;;;;;;19.91;39.28;102678.59;5032364;28;20045;-63
2023/01/03 09:33:42;;;;;;;2.95;2.60;;;;;;;19.90;39.49;102688.34;5031183;28;20037;-63
2023/01/03 09:36:08;;;;;;;3.70;2.58;;;;;;;19.84;39.40;102688.06;5030013;28;20087;-63
2023/01/03 09:38:34;;;;;;;3.60;3.03;;;;;;;19.86;39.34;102686.13;5031885;28;20036;-63
2023/01/03 09:41:11;;;;;;;3.38;2.65;;;;;;;19.80;39.50;102690.16;5033540;28;20250;-63
2023/01/03 09:43:41;;;;;;;4.70;2.80;;;;;;;19.83;39.28;102689.03;5030233;28;20084;-63
2023/01/03 09:46:19;;;;;;;3.58;3.05;;;;;;;20.18;38.67;102686.75;5033160;28;20044;-63
2023/01/03 09:48:47;;;;;;;3.08;2.20;;;;;;;21.01;36.89;102700.44;5034027;28;20040;-63
2023/01/03 10:03:43;;;;;;;3.38;2.45;;;;;;;21.33;36.08;102689.47;5033297;28;20437;-63
2023/01/03 10:06:12;;;;;;;3.40;2.70;;;;;;;21.31;36.19;102696.75;5034246;28;20574;-63
2023/01/03 10:09:04;;;;;;;3.80;2.95;;;;;;;21.25;35.98;102692.84;5034790;28;20437;-63
2023/01/03 10:11:32;;;;;;;3.63;2.45;;;;;;;21.22;36.30;102685.16;5027184;28;20033;-63
2023/01/03 10:14:04;;;;;;;3.42;2.70;;;;;;;21.10;36.37;102678.38;5028504;28;20136;-62
2023/01/03 10:16:56;;;;;;;4.00;2.97;;;;;;;21.30;36.51;102672.06;4986337;28;20715;-77
2023/01/03 10:19:49;;;;;;;3.22;2.45;;;;;;;21.56;36.44;102666.09;5035451;28;20165;-74
2023/01/03 10:22:24;;;;;;;9.82;2.63;;;;;;;21.77;36.24;102663.22;5034379;28;20788;-77
2023/01/03 10:24:59;;;;;;;3.17;2.78;;;;;;;21.86;36.51;102660.47;5025530;28;20074;-76
2023/01/03 10:27:28;;;;;;;3.00;2.38;;;;;;;21.86;36.29;102657.81;5059014;28;20529;-74
2023/01/03 10:29:58;;;;;;;3.23;2.70;;;;;;;21.91;36.41;102649.44;5034666;28;20033;-78
2023/01/03 10:32:40;;;;;;;3.33;2.42;;;;;;;22.02;36.29;102649.22;5026715;28;20046;-77
2023/01/03 10:35:27;;;;;;;3.17;2.45;;;;;;;22.10;36.29;102651.16;5032949;28;20710;-76
2023/01/03 10:37:54;;;;;;;3.28;2.50;;;;;;;22.15;36.41;102641.75;5036870;28;20040;-75
2023/01/03 10:40:37;;;;;;;2.58;2.20;;;;;;;22.20;36.32;102644.78;5028658;28;20060;-74
2023/01/03 10:43:39;;;;;;;3.63;2.60;;;;;;;22.21;36.21;102643.78;5028251;28;20112;-78
2023/01/03 10:46:26;;;;;;;4.05;2.55;;;;;;;22.14;36.57;102641.91;5036996;28;20420;-76
2023/01/03 10:48:54;;;;;;;3.47;2.40;;;;;;;22.15;36.29;102636.44;5022175;28;20602;-77
2023/01/03 10:51:26;;;;;;;2.90;2.35;;;;;;;22.13;36.53;102625.16;5038451;28;20124;-77
2023/01/03 10:53:54;;;;;;;3.75;2.90;;;;;;;22.20;36.50;102626.19;5037836;28;20462;-76
2023/01/03 10:56:20;;;;;;;3.05;2.47;;;;;;;22.16;36.32;102624.84;5041772;28;20060;-78
2023/01/03 10:58:46;;;;;;;3.90;2.75;;;;;;;22.19;36.58;102618.41;5043495;28;20045;-77
2023/01/03 11:01:20;;;;;;;4.47;2.97;;;;;;;22.19;36.32;102619.22;5035949;28;20037;-74
2023/01/03 11:04:06;;;;;;;4.45;2.97;;;;;;;22.25;36.15;102607.16;5035040;28;20104;-76
2023/01/03 11:06:32;;;;;;;3.17;2.65;;;;;;;22.23;36.54;102604.66;5018723;28;20467;-71
2023/01/03 11:09:02;;;;;;;4.22;3.17;;;;;;;22.08;37.03;102603.53;5031295;28;20041;-70
2023/01/03 11:11:28;;;;;;;3.67;2.90;;;;;;;21.91;37.15;102596.41;5038504;28;20033;-71
2023/01/03 11:14:18;;;;;;;4.18;2.78;;;;;;;21.81;37.25;102593.81;5033340;28;20045;-71
2023/01/03 11:16:44;;;;;;;;;;;;;;;21.78;37.36;102587.97;5037853;28;20041;-71
2023/01/03 11:19:16;;;;;;;4.47;3.05;;;;;;;21.75;37.27;102583.81;5037698;28;19931;-70
2023/01/03 11:21:47;;;;;;;4.00;3.08;;;;;;;21.72;37.11;102586.72;5000956;28;20122;-74
2023/01/03 11:24:28;;;;;;;5.82;3.15;;;;;;;21.67;37.37;102581.06;5034449;28;20508;-74
2023/01/03 11:27:27;;;;;;;3.97;2.85;;;;;;;21.63;37.31;102590.28;5043455;28;20395;-74
2023/01/03 11:30:18;;;;;;;3.38;2.90;;;;;;;21.61;37.43;102576.34;5033525;28;20049;-74
2023/01/03 11:32:53;;;;;;;3.33;2.78;;;;;;;21.56;37.31;102571.50;5042251;28;20053;-74
2023/01/03 11:35:40;;;;;;;5.30;3.33;;;;;;;21.54;37.40;102569.97;5032238;28;20037;-74
2023/01/03 11:38:29;;;;;;;3.65;2.97;;;;;;;21.53;37.44;102555.88;5010514;28;20049;-73
2023/01/03 11:41:28;;;;;;;4.18;3.20;;;;;;;21.49;37.46;102557.16;5037470;28;20037;-74
2023/01/03 11:44:15;;;;;;;4.10;3.17;;;;;;;21.50;37.27;102544.75;5034931;28;20082;-73
2023/01/03 11:46:46;;;;;;;4.20;3.40;;;;;;;21.46;37.36;102552.16;5036591;28;20391;-75
2023/01/03 11:49:37;;;;;;;3.78;3.20;;;;;;;21.48;37.44;102558.16;5033606;28;20044;-74
2023/01/03 11:52:25;;;;;;;4.93;3.63;;;;;;;21.42;37.32;102554.28;5031931;28;20025;-75
2023/01/03 11:55:15;;;;;;;5.43;3.03;;;;;;;21.43;37.54;102552.47;5006119;28;20733;-64
2023/01/03 11:58:04;;;;;;;6.13;3.53;;;;;;;21.42;37.36;102553.47;5037677;28;20556;-65
2023/01/03 12:01:15;;;;;;;6.45;3.40;;;;;;;21.36;37.27;102543.44;5036820;28;20091;-65
2023/01/03 12:03:40;;;;;;;4.40;3.22;;;;;;;21.44;37.33;102545.34;5031314;28;20146;-64
2023/01/03 12:06:33;;;;;;;5.55;3.83;;;;;;;21.40;37.40;102547.47;5030973;28;20498;-64
2023/01/03 12:09:32;;;;;;;5.18;3.67;;;;;;;21.40;37.37;102550.13;5036212;28;20682;-65
2023/01/03 12:12:06;;;;;;;4.50;3.13;;;;;;;21.34;37.58;102546.22;5009355;28;20064;-64
2023/01/03 12:14:43;;;;;;;4.82;3.28;;;;;;;21.40;37.12;102545.66;5038862;28;20033;-65
2023/01/03 12:17:43;;;;;;;4.43;3.28;;;;;;;21.35;37.23;102542.59;5035198;28;20040;-65
2023/01/03 12:20:22;;;;;;;4.72;3.35;;;;;;;21.32;37.25;102534.94;5021382;28;20127;-64
2023/01/03 12:22:55;;;;;;;4.60;3.42;;;;;;;21.33;37.58;102535.78;5027026;28;20066;-65
2023/01/03 12:25:31;;;;;;;5.05;3.30;;;;;;;21.32;37.32;102536.75;5044739;28;20045;-64
2023/01/03 12:28:09;;;;;;;3.85;3.13;;;;;;;21.33;37.24;102530.47;5020463;28;20454;-70
2023/01/03 12:30:55;;;;;;;4.15;3.13;;;;;;;21.32;37.30;102526.16;5040015;28;20036;-71
2023/01/03 12:33:37;;;;;;;3.97;3.35;;;;;;;21.31;37.36;102525.34;5037158;28;20115;-71
2023/01/03 12:36:15;;;;;;;4.32;3.15;;;;;;;21.30;37.54;102521.00;5036223;28;20045;-71
2023/01/03 12:38:54;;;;;;;4.63;3.33;;;;;;;21.25;37.33;102518.00;5032911;28;20040;-70
2023/01/03 12:41:32;;;;;;;4.43;3.47;;;;;;;21.30;37.53;102525.47;5039103;28;20076;-70
2023/01/03 12:44:02;;;;;;;5.18;3.30;;;;;;;21.31;37.53;102519.19;5000321;28;20723;-74
2023/01/03 12:46:34;;;;;;;5.25;3.08;;;;;;;21.32;37.52;102516.41;5026116;28;20044;-74